createdAt,value
2024-03-29T00:00:15.928Z,9.21
2024-03-29T00:01:15.811Z,9.20
2024-03-29T00:02:16.174Z,9.21
2024-03-29T00:03:15.796Z,9.18
2024-03-29T00:04:15.797Z,9.21
2024-03-29T00:05:15.768Z,9.20
2024-03-29T00:06:15.883Z,9.16
2024-03-29T00:07:15.749Z,9.12
2024-03-29T00:08:15.752Z,9.09
2024-03-29T00:09:15.725Z,9.10
2024-03-29T00:10:15.724Z,9.10
2024-03-29T00:11:15.706Z,9.15
2024-03-29T00:12:15.728Z,9.15
2024-03-29T00:13:15.694Z,9.20
2024-03-29T00:14:16.051Z,9.15
2024-03-29T00:15:15.684Z,9.12
2024-03-29T00:16:15.665Z,9.12
2024-03-29T00:17:15.645Z,9.10
2024-03-29T00:18:15.672Z,9.09
2024-03-29T00:19:15.620Z,9.06
2024-03-29T00:20:15.621Z,9.04
2024-03-29T00:21:15.894Z,9.01
2024-03-29T00:22:15.594Z,8.96
2024-03-29T00:23:15.582Z,8.91
2024-03-29T00:24:15.598Z,8.87
2024-03-29T00:25:15.558Z,8.90
2024-03-29T00:26:15.569Z,8.88
2024-03-29T00:27:15.538Z,8.86
2024-03-29T00:28:15.938Z,8.84
2024-03-29T00:29:15.525Z,8.81
2024-03-29T00:30:15.549Z,8.78
2024-03-29T00:31:15.502Z,8.78
2024-03-29T00:32:15.483Z,8.75
2024-03-29T00:33:15.468Z,8.72
2024-03-29T00:34:15.469Z,8.69
2024-03-29T00:35:15.782Z,8.66
2024-03-29T00:36:15.514Z,8.60
2024-03-29T00:37:15.448Z,8.60
2024-03-29T00:38:15.435Z,8.60
2024-03-29T00:39:15.410Z,8.60
2024-03-29T00:40:15.411Z,8.60
2024-03-29T00:41:15.393Z,8.58
2024-03-29T00:42:15.874Z,8.55
2024-03-29T00:43:15.368Z,8.54
2024-03-29T00:44:15.394Z,8.53
2024-03-29T00:45:28.422Z,8.48
2024-03-29T00:46:15.338Z,8.45
2024-03-29T00:47:15.330Z,8.40
2024-03-29T00:48:15.363Z,8.39
2024-03-29T00:49:16.719Z,8.39
2024-03-29T00:50:15.320Z,8.44
2024-03-29T00:51:15.281Z,8.42
2024-03-29T00:52:15.302Z,8.40
2024-03-29T00:53:15.258Z,8.42
2024-03-29T00:54:15.349Z,8.42
2024-03-29T00:55:15.249Z,8.39
2024-03-29T00:56:15.259Z,8.40
2024-03-29T00:57:15.228Z,8.39
2024-03-29T00:58:15.214Z,8.39
2024-03-29T00:59:15.194Z,8.40
2024-03-29T01:00:15.264Z,8.39
2024-03-29T01:01:15.171Z,8.37
2024-03-29T01:02:15.551Z,8.36
2024-03-29T01:03:15.195Z,8.37
2024-03-29T01:04:15.154Z,8.39
2024-03-29T01:05:15.130Z,8.40
2024-03-29T01:06:15.180Z,8.42
2024-03-29T01:07:15.107Z,8.40
2024-03-29T01:08:15.116Z,8.42
2024-03-29T01:09:15.396Z,8.44
2024-03-29T01:10:15.083Z,8.44
2024-03-29T01:11:15.080Z,8.45
2024-03-29T01:12:15.089Z,8.47
2024-03-29T01:13:15.046Z,8.50
2024-03-29T01:14:15.052Z,8.45
2024-03-29T01:15:15.027Z,8.45
2024-03-29T01:16:15.317Z,8.47
2024-03-29T01:17:15.006Z,8.45
2024-03-29T01:18:15.058Z,8.44
2024-03-29T01:19:15.002Z,8.44
2024-03-29T01:20:14.985Z,8.44
2024-03-29T01:21:14.971Z,8.42
2024-03-29T01:22:14.953Z,8.45
2024-03-29T01:23:15.223Z,8.44
2024-03-29T01:24:15.016Z,8.47
2024-03-29T01:25:14.922Z,8.42
2024-03-29T01:26:14.924Z,8.42
2024-03-29T01:27:14.907Z,8.42
2024-03-29T01:28:14.897Z,8.47
2024-03-29T01:29:14.884Z,8.45
2024-03-29T01:30:15.236Z,8.42
2024-03-29T01:31:14.858Z,8.44
2024-03-29T01:32:14.863Z,8.40
2024-03-29T01:33:14.836Z,8.40
2024-03-29T01:34:14.839Z,8.39
2024-03-29T01:35:14.816Z,8.37
2024-03-29T01:36:14.871Z,8.40
2024-03-29T01:37:15.086Z,8.39
2024-03-29T01:38:14.792Z,8.39
2024-03-29T01:39:17.054Z,8.39
2024-03-29T01:40:14.761Z,8.39
2024-03-29T01:41:14.752Z,8.40
2024-03-29T01:42:14.827Z,8.37
2024-03-29T01:43:14.735Z,8.36
2024-03-29T01:44:15.022Z,8.36
2024-03-29T01:45:14.711Z,8.35
2024-03-29T01:46:14.699Z,8.35
2024-03-29T01:47:14.713Z,8.33
2024-03-29T01:48:14.761Z,8.33
2024-03-29T01:49:14.667Z,8.35
2024-03-29T01:50:14.656Z,8.33
2024-03-29T01:51:14.965Z,8.35
2024-03-29T01:52:14.638Z,8.36
2024-03-29T01:53:14.634Z,8.37
2024-03-29T01:54:14.671Z,8.35
2024-03-29T01:55:14.603Z,8.33
2024-03-29T01:56:14.589Z,8.33
2024-03-29T01:57:14.584Z,8.32
2024-03-29T01:58:14.840Z,8.35
2024-03-29T01:59:14.579Z,8.35
2024-03-29T02:00:14.601Z,8.35
2024-03-29T02:01:14.540Z,8.36
2024-03-29T02:02:14.550Z,8.35
2024-03-29T02:03:14.522Z,8.35
2024-03-29T02:04:14.533Z,8.30
2024-03-29T02:05:14.513Z,8.32
2024-03-29T02:06:14.541Z,8.33
2024-03-29T02:07:14.481Z,8.35
2024-03-29T02:08:14.494Z,8.35
2024-03-29T02:09:14.455Z,8.33
2024-03-29T02:10:14.489Z,8.29
2024-03-29T02:11:14.724Z,8.30
2024-03-29T02:12:14.477Z,8.29
2024-03-29T02:13:14.416Z,8.30
2024-03-29T02:14:14.396Z,8.28
2024-03-29T02:15:14.394Z,8.25
2024-03-29T02:16:14.374Z,8.22
2024-03-29T02:17:14.670Z,8.21
2024-03-29T02:18:14.415Z,8.22
2024-03-29T02:19:14.345Z,8.25
2024-03-29T02:20:29.805Z,8.25
2024-03-29T02:21:14.332Z,8.26
2024-03-29T02:22:14.320Z,8.29
2024-03-29T02:23:14.300Z,8.29
2024-03-29T02:24:14.319Z,8.30
2024-03-29T02:25:14.300Z,8.28
2024-03-29T02:26:14.284Z,8.28
2024-03-29T02:27:14.270Z,8.25
2024-03-29T02:28:14.245Z,8.22
2024-03-29T02:29:14.558Z,8.18
2024-03-29T02:30:14.301Z,8.18
2024-03-29T02:31:14.225Z,8.14
2024-03-29T02:32:14.203Z,8.14
2024-03-29T02:33:14.202Z,8.14
2024-03-29T02:34:14.199Z,8.12
2024-03-29T02:35:14.177Z,8.12
2024-03-29T02:36:14.517Z,8.14
2024-03-29T02:37:14.165Z,8.15
2024-03-29T02:38:14.137Z,8.21
2024-03-29T02:39:14.146Z,8.26
2024-03-29T02:40:14.125Z,8.29
2024-03-29T02:41:14.125Z,8.30
2024-03-29T02:42:14.182Z,8.32
2024-03-29T02:43:14.398Z,8.35
2024-03-29T02:44:14.087Z,8.36
2024-03-29T02:45:14.075Z,8.45
2024-03-29T02:46:14.054Z,8.47
2024-03-29T02:47:14.056Z,8.45
2024-03-29T02:48:14.149Z,8.47
2024-03-29T02:49:14.026Z,8.51
2024-03-29T02:50:14.315Z,8.53
2024-03-29T02:51:14.007Z,8.53
2024-03-29T02:52:14.008Z,8.50
2024-03-29T02:53:13.986Z,8.51
2024-03-29T02:54:14.022Z,8.53
2024-03-29T02:55:13.966Z,8.51
2024-03-29T02:56:13.946Z,8.51
2024-03-29T02:57:14.234Z,8.51
2024-03-29T02:58:13.945Z,8.53
2024-03-29T02:59:13.925Z,8.53
2024-03-29T03:00:13.989Z,8.54
2024-03-29T03:01:13.926Z,8.53
2024-03-29T03:02:13.968Z,8.58
2024-03-29T03:03:13.924Z,8.58
2024-03-29T03:04:14.155Z,8.62
2024-03-29T03:05:13.932Z,8.62
2024-03-29T03:06:13.983Z,8.65
2024-03-29T03:07:13.842Z,8.68
2024-03-29T03:08:13.829Z,8.73
2024-03-29T03:09:13.821Z,8.78
2024-03-29T03:10:13.830Z,8.78
2024-03-29T03:11:14.153Z,8.78
2024-03-29T03:12:13.848Z,8.76
2024-03-29T03:13:13.779Z,8.76
2024-03-29T03:14:13.757Z,8.84
2024-03-29T03:15:13.752Z,8.86
2024-03-29T03:16:13.741Z,8.86
2024-03-29T03:17:13.789Z,8.87
2024-03-29T03:18:14.062Z,8.88
2024-03-29T03:19:13.727Z,8.96
2024-03-29T03:20:13.695Z,8.97
2024-03-29T03:21:13.697Z,8.99
2024-03-29T03:22:13.682Z,9.04
2024-03-29T03:23:13.671Z,9.10
2024-03-29T03:24:13.705Z,9.12
2024-03-29T03:25:13.938Z,9.12
2024-03-29T03:26:13.654Z,9.15
2024-03-29T03:27:13.629Z,9.21
2024-03-29T03:28:13.611Z,9.27
2024-03-29T03:29:13.615Z,9.28
2024-03-29T03:30:13.652Z,9.31
2024-03-29T03:31:13.585Z,9.38
2024-03-29T03:32:13.887Z,9.42
2024-03-29T03:33:13.564Z,9.43
2024-03-29T03:34:13.552Z,9.48
2024-03-29T03:35:13.550Z,9.50
2024-03-29T03:36:13.562Z,9.52
2024-03-29T03:37:13.525Z,9.53
2024-03-29T03:38:13.517Z,9.56
2024-03-29T03:39:13.771Z,9.58
2024-03-29T03:40:13.500Z,9.61
2024-03-29T03:41:13.470Z,9.70
2024-03-29T03:42:13.533Z,9.75
2024-03-29T03:43:13.452Z,9.78
2024-03-29T03:44:13.437Z,9.78
2024-03-29T03:45:13.441Z,9.76
2024-03-29T03:46:13.704Z,9.75
2024-03-29T03:47:13.407Z,9.73
2024-03-29T03:48:13.497Z,9.75
2024-03-29T03:49:13.389Z,9.75
2024-03-29T03:50:13.380Z,9.76
2024-03-29T03:51:13.374Z,9.76
2024-03-29T03:52:13.355Z,9.78
2024-03-29T03:53:13.651Z,9.76
2024-03-29T03:54:13.425Z,9.75
2024-03-29T03:55:13.321Z,9.73
2024-03-29T03:56:13.304Z,9.71
2024-03-29T03:57:13.307Z,9.68
2024-03-29T03:58:13.289Z,9.68
2024-03-29T03:59:13.286Z,9.70
2024-03-29T04:00:15.022Z,9.70
2024-03-29T04:01:13.270Z,9.68
2024-03-29T04:02:13.263Z,9.70
2024-03-29T04:03:13.254Z,9.71
2024-03-29T04:04:13.220Z,9.76
2024-03-29T04:05:13.216Z,9.81
2024-03-29T04:06:13.254Z,9.85
2024-03-29T04:07:13.485Z,9.82
2024-03-29T04:08:13.179Z,9.81
2024-03-29T04:09:13.174Z,9.78
2024-03-29T04:10:13.159Z,9.75
2024-03-29T04:11:13.166Z,9.71
2024-03-29T04:12:13.193Z,9.71
2024-03-29T04:13:13.135Z,9.71
2024-03-29T04:14:13.428Z,9.70
2024-03-29T04:15:13.136Z,9.71
2024-03-29T04:16:13.103Z,9.68
2024-03-29T04:17:13.177Z,9.70
2024-03-29T04:18:13.136Z,9.67
2024-03-29T04:19:13.063Z,9.68
2024-03-29T04:20:13.076Z,9.67
2024-03-29T04:21:13.322Z,9.68
2024-03-29T04:22:13.029Z,9.68
2024-03-29T04:23:13.067Z,9.70
2024-03-29T04:24:13.100Z,9.68
2024-03-29T04:25:13.010Z,9.71
2024-03-29T04:26:13.002Z,9.68
2024-03-29T04:27:12.977Z,9.66
2024-03-29T04:28:13.288Z,9.64
2024-03-29T04:29:12.959Z,9.61
2024-03-29T04:30:13.014Z,9.61
2024-03-29T04:31:12.945Z,9.60
2024-03-29T04:32:12.934Z,9.57
2024-03-29T04:33:12.912Z,9.53
2024-03-29T04:34:12.932Z,9.56
2024-03-29T04:35:13.205Z,9.50
2024-03-29T04:36:12.946Z,9.46
2024-03-29T04:37:12.884Z,9.46
2024-03-29T04:38:12.950Z,9.46
2024-03-29T04:39:12.852Z,9.45
2024-03-29T04:40:40.588Z,9.42
2024-03-29T04:42:28.190Z,9.39
2024-03-29T04:43:29.181Z,9.39
2024-03-29T04:44:29.158Z,9.35
2024-03-29T04:45:29.155Z,9.31
2024-03-29T04:46:29.135Z,9.27
2024-03-29T04:47:29.167Z,9.23
2024-03-29T04:48:29.383Z,9.21
2024-03-29T04:49:29.090Z,9.20
2024-03-29T04:50:29.078Z,9.21
2024-03-29T04:51:29.127Z,9.15
2024-03-29T04:52:29.064Z,9.12
2024-03-29T04:53:29.169Z,9.09
2024-03-29T04:54:29.045Z,9.10
2024-03-29T04:55:29.026Z,9.06
2024-03-29T04:56:29.016Z,9.01
2024-03-29T04:57:29.016Z,8.99
2024-03-29T04:58:28.996Z,8.94
2024-03-29T04:59:29.090Z,8.91
2024-03-29T05:00:29.278Z,8.88
2024-03-29T05:01:28.961Z,8.90
2024-03-29T05:02:28.960Z,8.90
2024-03-29T05:03:28.943Z,8.93
2024-03-29T05:04:28.926Z,8.93
2024-03-29T05:05:28.969Z,8.90
2024-03-29T05:06:28.922Z,8.87
2024-03-29T05:07:29.182Z,8.83
2024-03-29T05:08:28.885Z,8.78
2024-03-29T05:09:28.874Z,8.72
2024-03-29T05:10:28.864Z,8.69
2024-03-29T05:11:28.905Z,8.63
2024-03-29T05:12:28.839Z,8.57
2024-03-29T05:13:28.835Z,8.51
2024-03-29T05:14:29.120Z,8.51
2024-03-29T05:15:28.812Z,8.51
2024-03-29T05:16:28.807Z,8.48
2024-03-29T05:17:28.855Z,8.45
2024-03-29T05:18:28.783Z,8.40
2024-03-29T05:19:28.771Z,8.37
2024-03-29T05:20:28.770Z,8.33
2024-03-29T05:21:29.043Z,8.29
2024-03-29T05:22:28.747Z,8.29
2024-03-29T05:23:28.787Z,8.26
2024-03-29T05:24:28.718Z,8.26
2024-03-29T05:25:28.723Z,8.21
2024-03-29T05:26:28.697Z,8.18
2024-03-29T05:27:28.693Z,8.14
2024-03-29T05:28:28.953Z,8.11
2024-03-29T05:29:28.723Z,8.08
2024-03-29T05:30:28.652Z,8.07
2024-03-29T05:31:28.648Z,8.08
2024-03-29T05:32:28.665Z,8.08
2024-03-29T05:33:28.622Z,8.07
2024-03-29T05:34:28.627Z,8.04
2024-03-29T05:35:28.954Z,8.03
2024-03-29T05:36:28.602Z,7.99
2024-03-29T05:37:28.584Z,7.99
2024-03-29T05:38:28.583Z,7.96
2024-03-29T05:39:28.565Z,7.94
2024-03-29T05:40:28.552Z,7.92
2024-03-29T05:41:28.597Z,7.92
2024-03-29T05:42:28.828Z,7.89
2024-03-29T05:43:28.517Z,7.89
2024-03-29T05:44:28.539Z,7.89
2024-03-29T05:45:28.495Z,7.87
2024-03-29T05:46:28.488Z,7.87
2024-03-29T05:47:28.564Z,7.87
2024-03-29T05:48:28.463Z,7.85
2024-03-29T05:49:28.739Z,7.89
2024-03-29T05:50:28.443Z,7.92
2024-03-29T05:51:28.431Z,7.92
2024-03-29T05:52:28.442Z,7.92
2024-03-29T05:53:28.448Z,7.93
2024-03-29T05:54:28.396Z,7.93
2024-03-29T05:55:28.395Z,7.90
2024-03-29T05:56:28.672Z,7.90
2024-03-29T05:57:28.378Z,7.92
2024-03-29T05:58:28.355Z,7.87
2024-03-29T05:59:28.727Z,7.87
2024-03-29T06:00:28.362Z,7.85
2024-03-29T06:01:28.334Z,7.85
2024-03-29T06:02:28.323Z,7.84
2024-03-29T06:03:28.614Z,7.79
2024-03-29T06:04:30.012Z,7.79
2024-03-29T06:05:28.395Z,7.79
2024-03-29T06:06:28.281Z,7.78
2024-03-29T06:07:28.270Z,7.78
2024-03-29T06:08:28.264Z,7.78
2024-03-29T06:09:28.265Z,7.75
2024-03-29T06:10:28.513Z,7.77
2024-03-29T06:11:28.305Z,7.77
2024-03-29T06:12:28.214Z,7.72
2024-03-29T06:13:28.200Z,7.77
2024-03-29T06:14:28.190Z,7.71
2024-03-29T06:15:28.189Z,7.71
2024-03-29T06:16:28.185Z,7.71
2024-03-29T06:17:28.486Z,7.69
2024-03-29T06:18:28.152Z,7.69
2024-03-29T06:19:28.155Z,7.66
2024-03-29T06:20:28.122Z,7.63
2024-03-29T06:21:28.117Z,7.63
2024-03-29T06:22:28.104Z,7.62
2024-03-29T06:23:28.158Z,7.62
2024-03-29T06:24:28.359Z,7.59
2024-03-29T06:25:28.074Z,7.59
2024-03-29T06:26:28.080Z,7.58
2024-03-29T06:27:28.063Z,7.58
2024-03-29T06:28:28.043Z,7.58
2024-03-29T06:29:28.144Z,7.58
2024-03-29T06:30:28.029Z,7.56
2024-03-29T06:31:28.308Z,7.56
2024-03-29T06:32:28.003Z,7.55
2024-03-29T06:33:28.006Z,7.52
2024-03-29T06:34:27.976Z,7.53
2024-03-29T06:35:28.027Z,7.52
2024-03-29T06:36:27.958Z,7.53
2024-03-29T06:37:27.953Z,7.53
2024-03-29T06:38:28.223Z,7.52
2024-03-29T06:39:27.933Z,7.52
2024-03-29T06:40:27.920Z,7.53
2024-03-29T06:41:27.972Z,7.53
2024-03-29T06:42:27.957Z,7.55
2024-03-29T06:43:27.900Z,7.52
2024-03-29T06:44:27.879Z,7.52
2024-03-29T06:45:28.169Z,7.52
2024-03-29T06:46:27.849Z,7.50
2024-03-29T06:47:27.918Z,7.49
2024-03-29T06:48:27.853Z,7.50
2024-03-29T06:49:27.827Z,7.50
2024-03-29T06:50:27.809Z,7.53
2024-03-29T06:51:27.800Z,7.53
2024-03-29T06:52:28.071Z,7.52
2024-03-29T06:53:27.849Z,7.53
2024-03-29T06:54:27.775Z,7.53
2024-03-29T06:55:27.759Z,7.53
2024-03-29T06:56:27.753Z,7.55
2024-03-29T06:57:27.742Z,7.55
2024-03-29T06:58:27.750Z,7.55
2024-03-29T06:59:28.049Z,7.53
2024-03-29T07:00:27.712Z,7.55
2024-03-29T07:01:27.704Z,7.58
2024-03-29T07:02:27.703Z,7.59
2024-03-29T07:03:27.689Z,7.56
2024-03-29T07:04:27.671Z,7.58
2024-03-29T07:05:27.761Z,7.58
2024-03-29T07:06:28.779Z,7.56
2024-03-29T07:07:27.664Z,7.56
2024-03-29T07:08:27.618Z,7.56
2024-03-29T07:09:27.608Z,7.58
2024-03-29T07:10:28.282Z,7.56
2024-03-29T07:11:27.670Z,7.58
2024-03-29T07:12:27.584Z,7.58
2024-03-29T07:13:27.872Z,7.58
2024-03-29T07:14:27.562Z,7.59
2024-03-29T07:15:27.542Z,7.59
2024-03-29T07:16:27.543Z,7.58
2024-03-29T07:17:27.678Z,7.58
2024-03-29T07:18:27.529Z,7.59
2024-03-29T07:19:27.534Z,7.58
2024-03-29T07:20:27.774Z,7.59
2024-03-29T07:21:27.491Z,7.58
2024-03-29T07:22:35.794Z,7.56
2024-03-29T07:23:27.548Z,7.56
2024-03-29T07:24:27.456Z,7.56
2024-03-29T07:25:27.438Z,7.56
2024-03-29T07:26:27.440Z,7.56
2024-03-29T07:27:27.714Z,7.56
2024-03-29T07:28:27.416Z,7.58
2024-03-29T07:29:27.460Z,7.58
2024-03-29T07:30:27.407Z,7.58
2024-03-29T07:31:27.468Z,7.59
2024-03-29T07:32:27.377Z,7.60
2024-03-29T07:33:27.373Z,7.60
2024-03-29T07:34:27.648Z,7.66
2024-03-29T07:35:27.401Z,7.69
2024-03-29T07:36:27.334Z,7.74
2024-03-29T07:37:27.328Z,7.75
2024-03-29T07:38:27.316Z,7.77
2024-03-29T07:39:27.293Z,7.78
2024-03-29T07:40:27.301Z,7.79
2024-03-29T07:41:27.591Z,7.79
2024-03-29T07:42:27.303Z,7.81
2024-03-29T07:43:27.253Z,7.85
2024-03-29T07:44:27.251Z,7.87
2024-03-29T07:45:27.228Z,7.92
2024-03-29T07:46:27.224Z,7.90
2024-03-29T07:47:27.294Z,7.93
2024-03-29T07:48:27.514Z,7.90
2024-03-29T07:49:27.182Z,7.93
2024-03-29T07:50:27.175Z,7.93
2024-03-29T07:51:27.167Z,7.93
2024-03-29T07:52:27.162Z,7.96
2024-03-29T07:53:27.198Z,7.97
2024-03-29T07:54:27.134Z,7.97
2024-03-29T07:55:27.533Z,8.00
2024-03-29T07:56:27.132Z,8.03
2024-03-29T07:57:27.110Z,8.07
2024-03-29T07:58:27.094Z,8.10
2024-03-29T07:59:27.153Z,8.10
2024-03-29T08:00:27.099Z,8.12
2024-03-29T08:01:34.238Z,8.11
2024-03-29T08:02:28.754Z,8.12
2024-03-29T08:03:27.056Z,8.12
2024-03-29T08:04:27.028Z,8.12
2024-03-29T08:05:27.370Z,8.12
2024-03-29T08:06:27.011Z,8.12
2024-03-29T08:07:27.006Z,8.14
2024-03-29T08:08:27.291Z,8.12
2024-03-29T08:09:26.991Z,8.14
2024-03-29T08:10:26.970Z,8.17
2024-03-29T08:11:27.031Z,8.15
2024-03-29T08:12:26.947Z,8.17
2024-03-29T08:13:26.936Z,8.17
2024-03-29T08:14:26.941Z,8.20
2024-03-29T08:15:27.434Z,8.21
2024-03-29T08:16:28.518Z,8.21
2024-03-29T08:17:27.023Z,8.25
2024-03-29T08:18:26.905Z,8.28
2024-03-29T08:19:26.878Z,8.30
2024-03-29T08:20:27.141Z,8.33
2024-03-29T08:21:26.865Z,8.36
2024-03-29T08:22:26.893Z,8.39
2024-03-29T08:23:26.882Z,8.44
2024-03-29T08:24:26.856Z,8.50
2024-03-29T08:25:26.825Z,8.58
2024-03-29T08:26:26.811Z,8.62
2024-03-29T08:27:26.782Z,8.65
2024-03-29T08:28:26.804Z,8.71
2024-03-29T08:29:26.989Z,8.72
2024-03-29T08:30:26.780Z,8.73
2024-03-29T08:31:26.736Z,8.76
2024-03-29T08:32:26.739Z,8.79
2024-03-29T08:33:26.727Z,8.91
2024-03-29T08:34:26.728Z,9.10
2024-03-29T08:35:26.791Z,9.25
2024-03-29T08:36:28.132Z,9.35
2024-03-29T08:37:26.692Z,9.45
2024-03-29T08:38:26.676Z,9.50
2024-03-29T08:39:26.674Z,9.58
2024-03-29T08:40:26.657Z,9.75
2024-03-29T08:41:26.728Z,9.91
2024-03-29T08:42:26.639Z,10.01
2024-03-29T08:43:26.632Z,10.07
2024-03-29T08:44:26.919Z,10.12
2024-03-29T08:45:26.598Z,10.21
2024-03-29T08:46:26.610Z,10.25
2024-03-29T08:47:27.013Z,10.15
2024-03-29T08:48:26.583Z,10.06
2024-03-29T08:49:26.545Z,10.06
2024-03-29T08:50:26.571Z,10.00
2024-03-29T08:51:26.812Z,10.03
2024-03-29T08:52:26.537Z,10.09
2024-03-29T08:53:26.598Z,10.15
2024-03-29T08:54:26.499Z,10.14
2024-03-29T08:55:26.503Z,10.15
2024-03-29T08:56:26.474Z,10.12
2024-03-29T08:57:26.479Z,10.14
2024-03-29T08:58:26.763Z,10.17
2024-03-29T08:59:26.537Z,10.18
2024-03-29T09:00:26.462Z,10.06
2024-03-29T09:01:26.442Z,10.12
2024-03-29T09:02:26.429Z,10.10
2024-03-29T09:03:26.404Z,10.17
2024-03-29T09:04:26.392Z,10.21
2024-03-29T09:05:26.731Z,10.24
2024-03-29T09:06:26.418Z,10.28
2024-03-29T09:07:26.385Z,10.28
2024-03-29T09:08:26.359Z,10.25
2024-03-29T09:09:26.351Z,10.25
2024-03-29T09:10:26.331Z,10.32
2024-03-29T09:11:26.426Z,10.33
2024-03-29T09:12:26.606Z,10.33
2024-03-29T09:13:26.306Z,10.37
2024-03-29T09:14:26.310Z,10.55
2024-03-29T09:15:26.316Z,10.70
2024-03-29T09:16:26.284Z,10.84
2024-03-29T09:17:26.430Z,10.95
2024-03-29T09:18:26.538Z,10.98
2024-03-29T09:19:26.256Z,11.06
2024-03-29T09:20:26.239Z,11.11
2024-03-29T09:21:26.229Z,11.24
2024-03-29T09:22:26.221Z,11.32
2024-03-29T09:23:26.268Z,11.32
2024-03-29T09:24:26.201Z,11.36
2024-03-29T09:25:26.200Z,11.35
2024-03-29T09:26:26.164Z,11.17
2024-03-29T09:27:26.169Z,11.16
2024-03-29T09:28:26.197Z,11.11
2024-03-29T09:29:26.197Z,11.13
2024-03-29T09:30:26.127Z,11.06
2024-03-29T09:31:26.107Z,10.96
2024-03-29T09:32:26.113Z,10.96
2024-03-29T09:33:26.107Z,10.98
2024-03-29T09:34:26.075Z,10.98
2024-03-29T09:35:26.158Z,10.96
2024-03-29T09:36:26.357Z,11.01
2024-03-29T09:37:27.379Z,11.01
2024-03-29T09:38:26.059Z,11.02
2024-03-29T09:39:26.017Z,11.07
2024-03-29T09:40:26.036Z,11.11
2024-03-29T09:41:26.066Z,11.19
2024-03-29T09:42:25.986Z,11.29
2024-03-29T09:43:30.887Z,11.36
2024-03-29T09:44:25.990Z,11.36
2024-03-29T09:45:25.954Z,11.38
2024-03-29T09:46:25.961Z,11.39
2024-03-29T09:47:26.017Z,11.39
2024-03-29T09:48:25.938Z,11.43
2024-03-29T09:49:25.922Z,11.46
2024-03-29T09:50:26.184Z,11.41
2024-03-29T09:51:25.930Z,11.41
2024-03-29T09:52:25.893Z,11.39
2024-03-29T09:53:25.928Z,11.35
2024-03-29T09:54:25.861Z,11.34
2024-03-29T09:55:25.861Z,11.36
2024-03-29T09:56:25.842Z,11.44
2024-03-29T09:57:26.118Z,11.43
2024-03-29T09:58:25.900Z,11.43
2024-03-29T09:59:25.858Z,11.41
2024-03-29T10:00:25.829Z,11.46
2024-03-29T10:01:25.845Z,11.39
2024-03-29T10:02:25.781Z,11.35
2024-03-29T10:03:25.839Z,11.32
2024-03-29T10:04:26.086Z,11.34
2024-03-29T10:05:25.768Z,11.31
2024-03-29T10:06:25.739Z,11.27
2024-03-29T10:07:25.718Z,11.25
2024-03-29T10:08:25.709Z,11.27
2024-03-29T10:09:25.711Z,11.21
2024-03-29T10:10:25.692Z,11.21
2024-03-29T10:11:26.047Z,11.14
2024-03-29T10:12:25.682Z,11.10
2024-03-29T10:13:25.673Z,11.03
2024-03-29T10:14:25.670Z,10.99
2024-03-29T10:15:25.644Z,10.96
2024-03-29T10:16:25.641Z,10.94
2024-03-29T10:17:25.735Z,10.91
2024-03-29T10:18:27.291Z,10.89
2024-03-29T10:19:25.591Z,10.84
2024-03-29T10:20:25.615Z,10.83
2024-03-29T10:21:25.572Z,10.83
2024-03-29T10:22:25.564Z,10.77
2024-03-29T10:23:25.667Z,10.76
2024-03-29T10:24:25.542Z,10.71
2024-03-29T10:25:25.865Z,10.71
2024-03-29T10:26:25.533Z,10.70
2024-03-29T10:27:25.525Z,10.66
2024-03-29T10:28:25.515Z,10.63
2024-03-29T10:29:25.592Z,10.63
2024-03-29T10:30:25.475Z,10.63
2024-03-29T10:31:25.484Z,10.62
2024-03-29T10:32:25.804Z,10.62
2024-03-29T10:33:29.191Z,10.73
2024-03-29T10:34:25.461Z,10.86
2024-03-29T10:35:25.510Z,10.81
2024-03-29T10:36:25.428Z,10.80
2024-03-29T10:37:25.445Z,10.76
2024-03-29T10:38:25.390Z,10.71
2024-03-29T10:39:25.722Z,10.68
2024-03-29T10:40:25.384Z,10.65
2024-03-29T10:41:25.452Z,10.65
2024-03-29T10:42:25.353Z,10.66
2024-03-29T10:43:25.360Z,10.66
2024-03-29T10:44:25.348Z,10.70
2024-03-29T10:45:25.377Z,10.70
2024-03-29T10:46:25.602Z,10.70
2024-03-29T10:47:25.422Z,10.73
2024-03-29T10:48:25.298Z,10.76
2024-03-29T10:49:25.273Z,10.76
2024-03-29T10:50:25.281Z,10.76
2024-03-29T10:51:25.265Z,10.74
2024-03-29T10:52:25.250Z,10.73
2024-03-29T10:53:25.619Z,10.70
2024-03-29T10:54:25.222Z,10.71
2024-03-29T10:55:25.216Z,10.71
2024-03-29T10:56:25.202Z,10.71
2024-03-29T10:57:25.210Z,10.70
2024-03-29T10:58:25.185Z,10.71
2024-03-29T10:59:25.293Z,10.71
2024-03-29T11:00:25.447Z,10.70
2024-03-29T11:01:25.153Z,10.71
2024-03-29T11:02:25.197Z,10.70
2024-03-29T11:03:25.155Z,10.74
2024-03-29T11:04:25.115Z,10.77
2024-03-29T11:05:25.233Z,10.80
2024-03-29T11:06:25.098Z,10.83
2024-03-29T11:07:25.384Z,10.81
2024-03-29T11:08:25.118Z,10.81
2024-03-29T11:09:25.086Z,10.83
2024-03-29T11:10:25.060Z,10.86
2024-03-29T11:11:25.115Z,10.92
2024-03-29T11:12:25.046Z,10.95
2024-03-29T11:13:25.018Z,11.01
2024-03-29T11:14:25.360Z,11.03
2024-03-29T11:15:25.011Z,11.03
2024-03-29T11:16:25.014Z,11.07
2024-03-29T11:17:25.103Z,11.13
2024-03-29T11:18:24.962Z,11.17
2024-03-29T11:19:24.974Z,11.24
2024-03-29T11:20:24.977Z,11.27
2024-03-29T11:21:25.225Z,11.32
2024-03-29T11:22:24.925Z,11.35
2024-03-29T11:23:25.060Z,11.41
2024-03-29T11:24:24.897Z,11.44
2024-03-29T11:25:24.891Z,11.56
2024-03-29T11:26:24.924Z,11.62
2024-03-29T11:27:24.886Z,11.77
2024-03-29T11:28:25.166Z,11.97
2024-03-29T11:29:24.926Z,12.24
2024-03-29T11:30:24.852Z,12.63
2024-03-29T11:31:24.846Z,12.87
2024-03-29T11:32:24.846Z,13.04
2024-03-29T11:33:24.816Z,13.43
2024-03-29T11:34:24.798Z,13.63
2024-03-29T11:35:25.182Z,13.56
2024-03-29T11:36:24.780Z,13.41
2024-03-29T11:37:24.775Z,13.29
2024-03-29T11:38:24.847Z,13.18
2024-03-29T11:39:24.775Z,13.25
2024-03-29T11:40:24.742Z,13.58
2024-03-29T11:41:24.863Z,13.99
2024-03-29T11:42:24.995Z,14.01
2024-03-29T11:43:24.706Z,13.96
2024-03-29T11:44:24.769Z,14.17
2024-03-29T11:45:24.692Z,14.01
2024-03-29T11:46:24.667Z,14.01
2024-03-29T11:47:24.746Z,13.95
2024-03-29T11:48:24.658Z,13.99
2024-03-29T11:49:24.938Z,14.21
2024-03-29T11:50:24.672Z,14.32
2024-03-29T11:51:24.615Z,14.35
2024-03-29T11:52:24.601Z,14.34
2024-03-29T11:53:24.687Z,14.20
2024-03-29T11:54:26.397Z,14.21
2024-03-29T11:55:24.577Z,14.27
2024-03-29T11:56:24.600Z,14.16
2024-03-29T11:57:24.596Z,14.01
2024-03-29T11:58:24.543Z,14.02
2024-03-29T11:59:24.658Z,13.91
2024-03-29T12:00:24.542Z,13.96
2024-03-29T12:01:24.508Z,14.04
2024-03-29T12:02:24.807Z,14.02
2024-03-29T12:03:24.490Z,14.01
2024-03-29T12:04:24.492Z,13.94
2024-03-29T12:05:24.586Z,13.79
2024-03-29T12:06:24.467Z,13.63
2024-03-29T12:07:24.462Z,13.55
2024-03-29T12:08:24.457Z,13.52
2024-03-29T12:09:24.435Z,13.44
2024-03-29T12:10:24.420Z,13.29
2024-03-29T12:11:25.885Z,13.24
2024-03-29T12:12:24.407Z,13.18
2024-03-29T12:13:24.387Z,13.14
2024-03-29T12:14:24.416Z,13.09
2024-03-29T12:15:24.684Z,13.11
2024-03-29T12:16:24.340Z,13.09
2024-03-29T12:17:24.400Z,13.11
2024-03-29T12:18:24.331Z,13.09
2024-03-29T12:19:24.369Z,13.06
2024-03-29T12:20:24.394Z,13.09
2024-03-29T12:21:24.305Z,13.38
2024-03-29T12:22:24.293Z,13.70
2024-03-29T12:23:24.478Z,14.12
2024-03-29T12:24:24.272Z,14.20
2024-03-29T12:25:24.250Z,14.24
2024-03-29T12:26:24.259Z,14.09
2024-03-29T12:27:24.497Z,14.02
2024-03-29T12:28:24.214Z,13.94
2024-03-29T12:29:24.393Z,13.88
2024-03-29T12:30:24.203Z,13.89
2024-03-29T12:31:24.183Z,13.91
2024-03-29T12:32:24.228Z,13.91
2024-03-29T12:33:24.161Z,13.81
2024-03-29T12:34:24.150Z,13.80
2024-03-29T12:35:24.214Z,13.77
2024-03-29T12:36:24.125Z,13.71
2024-03-29T12:37:24.118Z,13.73
2024-03-29T12:38:24.127Z,13.70
2024-03-29T12:39:24.394Z,13.62
2024-03-29T12:40:24.098Z,13.52
2024-03-29T12:41:24.268Z,13.41
2024-03-29T12:42:24.063Z,13.33
2024-03-29T12:43:24.088Z,13.20
2024-03-29T12:44:24.049Z,13.14
2024-03-29T12:45:24.060Z,13.04
2024-03-29T12:46:24.397Z,12.97
2024-03-29T12:47:24.070Z,12.93
2024-03-29T12:48:24.026Z,12.93
2024-03-29T12:49:23.995Z,12.88
2024-03-29T12:50:24.004Z,12.89
2024-03-29T12:51:23.974Z,12.93
2024-03-29T12:52:23.957Z,13.00
2024-03-29T12:53:24.305Z,13.04
2024-03-29T12:54:23.964Z,13.03
2024-03-29T12:55:23.948Z,13.02
2024-03-29T12:56:23.938Z,13.02
2024-03-29T12:57:23.912Z,13.07
2024-03-29T12:58:23.908Z,13.14
2024-03-29T12:59:23.960Z,13.22
2024-03-29T13:00:24.211Z,13.21
2024-03-29T13:01:23.860Z,13.25
2024-03-29T13:02:23.875Z,13.32
2024-03-29T13:03:23.881Z,13.37
2024-03-29T13:04:23.831Z,13.41
2024-03-29T13:05:23.962Z,13.43
2024-03-29T13:06:23.809Z,13.43
2024-03-29T13:07:24.092Z,13.49
2024-03-29T13:08:23.827Z,13.54
2024-03-29T13:09:23.780Z,13.55
2024-03-29T13:10:23.792Z,13.67